Time;durP1;ratioP1;P1;durP2;ratioP2;P2;SDS_P1;SDS_P2;PMS_P1;PMS_P2;Temp;Humidity;BMP_temperature;BMP_pressure;BME280_temperature;BME280_humidity;BME280_pressure;Samples;Min_cycle;Max_cycle;Signal;HPM_P1;HPM_P2
2021/10/18 00:01:26;;;;;;;4.43;1.23;;;;;;;;;;4980556;28;20047;-66
2021/10/18 00:03:52;;;;;;;5.18;1.75;;;;;;;;;;4971795;28;20093;-62
2021/10/18 00:06:18;;;;;;;2.65;0.90;;;;;;;;;;4969121;28;20127;-62
2021/10/18 00:08:43;;;;;;;4.15;0.98;;;;;;;;;;4970787;28;20124;-63
2021/10/18 00:11:09;;;;;;;5.35;0.93;;;;;;;;;;4968276;28;20032;-62
2021/10/18 00:13:35;;;;;;;6.47;1.02;;;;;;;;;;4963067;28;20268;-62
2021/10/18 00:16:01;;;;;;;3.33;0.88;;;;;;;;;;4960651;28;20038;-62
2021/10/18 00:18:27;;;;;;;4.80;1.10;;;;;;;;;;4961444;28;20155;-63
2021/10/18 00:20:53;;;;;;;2.65;0.90;;;;;;;;;;4959950;28;20093;-62
2021/10/18 00:23:18;;;;;;;5.53;1.00;;;;;;;;;;4974608;28;20042;-66
2021/10/18 00:25:45;;;;;;;3.42;1.20;;;;;;;;;;4977386;28;20135;-62
2021/10/18 00:28:11;;;;;;;4.25;1.13;;;;;;;;;;4964892;28;20093;-63
2021/10/18 00:30:37;;;;;;;2.97;0.90;;;;;;;;;;4962392;28;20043;-62
2021/10/18 00:33:03;;;;;;;4.20;1.38;;;;;;;;;;4965079;28;20114;-63
2021/10/18 00:35:29;;;;;;;6.05;1.10;;;;;;;;;;4963107;28;20118;-64
2021/10/18 00:37:55;;;;;;;4.32;1.15;;;;;;;;;;4978859;28;20082;-60
2021/10/18 00:40:21;;;;;;;4.35;1.60;;;;;;;;;;4974628;28;20655;-64
2021/10/18 00:42:49;;;;;;;4.18;1.08;;;;;;;;;;4960944;28;20050;-62
2021/10/18 00:45:15;;;;;;;3.30;1.00;;;;;;;;;;4958992;28;20134;-63
2021/10/18 00:47:41;;;;;;;5.75;1.05;;;;;;;;;;4960170;28;20129;-63
2021/10/18 00:50:07;;;;;;;5.00;1.15;;;;;;;;;;4960367;28;20042;-63
2021/10/18 00:52:35;;;;;;;7.22;1.30;;;;;;;;;;4959743;28;20040;-61
2021/10/18 00:55:01;;;;;;;9.80;1.30;;;;;;;;;;4960411;28;20045;-63
2021/10/18 00:57:27;;;;;;;6.32;1.00;;;;;;;;;;4960121;28;20123;-63
2021/10/18 00:59:54;;;;;;;5.00;1.33;;;;;;;;;;4962313;28;20050;-63
2021/10/18 01:02:20;;;;;;;4.32;0.90;;;;;;;;;;4963545;28;20071;-62
2021/10/18 01:04:46;;;;;;;4.82;0.88;;;;;;;;;;4962730;28;20058;-62
2021/10/18 01:07:12;;;;;;;6.63;1.20;;;;;;;;;;4965073;28;20138;-62
2021/10/18 01:09:38;;;;;;;3.60;1.00;;;;;;;;;;4963085;28;20070;-63
2021/10/18 01:12:04;;;;;;;6.90;1.02;;;;;;;;;;4964872;28;20039;-61
2021/10/18 01:14:30;;;;;;;4.03;0.93;;;;;;;;;;4961231;28;20047;-63
2021/10/18 01:16:56;;;;;;;2.72;0.90;;;;;;;;;;4955359;28;20050;-61
2021/10/18 01:19:22;;;;;;;2.08;0.60;;;;;;;;;;4955862;28;20043;-61
2021/10/18 01:21:48;;;;;;;4.93;0.88;;;;;;;;;;4962526;28;20748;-63
2021/10/18 01:24:14;;;;;;;3.25;0.90;;;;;;;;;;4961962;28;20122;-63
2021/10/18 01:26:40;;;;;;;3.45;0.85;;;;;;;;;;4959263;28;20039;-61
2021/10/18 01:29:09;;;;;;;7.18;1.05;;;;;;;;;;4967571;28;20043;-64
2021/10/18 01:31:37;;;;;;;4.25;1.20;;;;;;;;;;4960640;28;20066;-62
2021/10/18 01:34:03;;;;;;;3.40;0.80;;;;;;;;;;4976876;28;20035;-61
2021/10/18 01:36:29;;;;;;;8.88;1.65;;;;;;;;;;4974392;28;20050;-63
2021/10/18 01:38:55;;;;;;;3.38;0.73;;;;;;;;;;4959051;28;20603;-63
2021/10/18 01:41:41;;;;;;;3.40;0.90;;;;;;;;;;4958632;28;20070;-62
2021/10/18 01:44:06;;;;;;;5.57;1.10;;;;;;;;;;4943988;29;20126;-63
2021/10/18 01:46:32;;;;;;;2.38;0.80;;;;;;;;;;4943476;28;20103;-60
2021/10/18 01:48:58;;;;;;;2.97;0.98;;;;;;;;;;4943114;29;20190;-63
2021/10/18 01:51:24;;;;;;;3.88;1.10;;;;;;;;;;4943620;28;20048;-64
2021/10/18 01:53:50;;;;;;;5.72;1.30;;;;;;;;;;4950661;29;20031;-63
2021/10/18 01:56:16;;;;;;;3.15;1.00;;;;;;;;;;4947092;28;20100;-62
2021/10/18 01:58:42;;;;;;;3.80;1.23;;;;;;;;;;4945191;29;20051;-61
2021/10/18 02:01:08;;;;;;;4.65;1.02;;;;;;;;;;4947230;29;20055;-62
2021/10/18 02:03:34;;;;;;;4.43;1.30;;;;;;;;;;4946809;29;20112;-61
2021/10/18 02:05:59;;;;;;;10.70;1.20;;;;;;;;;;4944409;28;20040;-61
2021/10/18 02:08:25;;;;;;;5.75;1.25;;;;;;;;;;4946194;29;20039;-62
2021/10/18 02:10:51;;;;;;;9.80;1.40;;;;;;;;;;4945615;29;20049;-63
2021/10/18 02:13:17;;;;;;;5.10;1.58;;;;;;;;;;4949731;29;20047;-63
2021/10/18 02:15:43;;;;;;;4.13;1.27;;;;;;;;;;4974152;28;20043;-62
2021/10/18 02:18:09;;;;;;;5.35;1.65;;;;;;;;;;4981822;28;20034;-63
2021/10/18 02:20:35;;;;;;;7.60;1.42;;;;;;;;;;4980229;28;20415;-63
2021/10/18 02:23:02;;;;;;;13.43;1.67;;;;;;;;;;4965700;28;20117;-61
2021/10/18 02:25:27;;;;;;;7.82;1.70;;;;;;;;;;4966202;28;20890;-61
2021/10/18 02:27:53;;;;;;;5.35;1.58;;;;;;;;;;4954657;28;20141;-61
2021/10/18 02:30:19;;;;;;;5.13;1.58;;;;;;;;;;4953950;28;20081;-60
2021/10/18 02:32:46;;;;;;;5.85;1.20;;;;;;;;;;4959555;28;20075;-62
2021/10/18 02:35:12;;;;;;;7.35;1.60;;;;;;;;;;4963488;28;20050;-61
2021/10/18 02:37:38;;;;;;;3.97;1.25;;;;;;;;;;4966627;28;20042;-64
2021/10/18 02:40:04;;;;;;;5.97;1.20;;;;;;;;;;4962640;28;20043;-63
2021/10/18 02:42:30;;;;;;;7.30;1.20;;;;;;;;;;4962965;28;20047;-63
2021/10/18 02:44:56;;;;;;;8.88;2.28;;;;;;;;;;4962512;28;20074;-62
2021/10/18 02:47:22;;;;;;;4.65;1.20;;;;;;;;;;4967642;28;20077;-60
2021/10/18 02:49:48;;;;;;;7.72;1.73;;;;;;;;;;4964647;28;20067;-63
2021/10/18 02:52:14;;;;;;;8.18;1.40;;;;;;;;;;4965599;28;20043;-62
2021/10/18 02:54:40;;;;;;;6.82;1.52;;;;;;;;;;4963873;28;20042;-60
2021/10/18 02:57:06;;;;;;;5.30;1.40;;;;;;;;;;4965350;28;20046;-62
2021/10/18 02:59:32;;;;;;;6.53;1.60;;;;;;;;;;4964277;28;20035;-62
2021/10/18 03:01:57;;;;;;;8.40;1.48;;;;;;;;;;4955593;28;20097;-61
2021/10/18 03:04:23;;;;;;;11.05;1.65;;;;;;;;;;4952633;28;20039;-60
2021/10/18 03:06:49;;;;;;;6.60;1.13;;;;;;;;;;4954805;28;20043;-61
2021/10/18 03:09:15;;;;;;;4.50;1.25;;;;;;;;;;4956076;28;20377;-61
2021/10/18 03:11:41;;;;;;;4.63;1.30;;;;;;;;;;4962356;28;20070;-61
2021/10/18 03:14:06;;;;;;;11.35;1.33;;;;;;;;;;4956497;28;20052;-60
2021/10/18 03:16:32;;;;;;;7.60;1.55;;;;;;;;;;4957614;28;20049;-60
2021/10/18 03:18:58;;;;;;;7.03;1.50;;;;;;;;;;4970327;28;20046;-60
2021/10/18 03:21:24;;;;;;;7.28;1.30;;;;;;;;;;4954220;28;20078;-60
2021/10/18 03:23:50;;;;;;;8.80;1.67;;;;;;;;;;4953947;28;20066;-59
2021/10/18 03:26:16;;;;;;;3.78;0.93;;;;;;;;;;4953052;28;20601;-59
2021/10/18 03:28:42;;;;;;;4.75;1.45;;;;;;;;;;4967396;28;20094;-60
2021/10/18 03:31:08;;;;;;;5.80;1.60;;;;;;;;;;4955254;28;20047;-60
2021/10/18 03:33:40;;;;;;;5.78;1.50;;;;;;;;;;4954528;28;20535;-60
2021/10/18 03:36:07;;;;;;;7.70;1.20;;;;;;;;;;4954884;28;20152;-62
2021/10/18 03:38:33;;;;;;;4.35;1.45;;;;;;;;;;4969320;28;20065;-59
2021/10/18 03:40:59;;;;;;;4.97;1.48;;;;;;;;;;4951206;28;20079;-60
2021/10/18 03:43:25;;;;;;;6.13;1.40;;;;;;;;;;4954128;28;20523;-61
2021/10/18 03:45:51;;;;;;;5.72;1.70;;;;;;;;;;4953507;28;20051;-59
2021/10/18 03:48:17;;;;;;;6.55;1.70;;;;;;;;;;4950868;28;20129;-59
2021/10/18 03:50:43;;;;;;;10.13;1.73;;;;;;;;;;4951587;28;20093;-58
2021/10/18 03:53:09;;;;;;;7.68;1.35;;;;;;;;;;4953822;28;20478;-60
2021/10/18 03:55:34;;;;;;;5.97;1.52;;;;;;;;;;4951880;28;20937;-60
2021/10/18 03:58:00;;;;;;;5.70;1.52;;;;;;;;;;4951194;28;20035;-61
2021/10/18 04:00:26;;;;;;;5.97;1.42;;;;;;;;;;4956567;28;20151;-63
2021/10/18 04:02:52;;;;;;;4.60;1.40;;;;;;;;;;4981544;28;20038;-58
2021/10/18 04:05:18;;;;;;;5.68;1.50;;;;;;;;;;4965354;28;20039;-60
2021/10/18 04:07:48;;;;;;;6.40;1.77;;;;;;;;;;4963051;28;20046;-60
2021/10/18 04:10:15;;;;;;;8.75;1.58;;;;;;;;;;4960177;28;20047;-60
2021/10/18 04:12:41;;;;;;;5.63;1.48;;;;;;;;;;4964499;28;20047;-60
2021/10/18 04:15:07;;;;;;;6.30;1.75;;;;;;;;;;4965851;28;20043;-61
2021/10/18 04:17:33;;;;;;;4.25;1.42;;;;;;;;;;4982071;28;20044;-58
2021/10/18 04:19:59;;;;;;;10.35;1.88;;;;;;;;;;4966056;28;20035;-61
2021/10/18 04:22:25;;;;;;;5.57;1.13;;;;;;;;;;4964379;28;20058;-59
2021/10/18 04:24:51;;;;;;;2.00;0.82;;;;;;;;;;4963547;28;20058;-61
2021/10/18 04:27:17;;;;;;;6.70;1.70;;;;;;;;;;4972786;28;20046;-61
2021/10/18 04:29:43;;;;;;;7.63;1.55;;;;;;;;;;4957619;28;20050;-60
2021/10/18 04:32:09;;;;;;;5.10;1.58;;;;;;;;;;4969672;28;21684;-62
2021/10/18 04:34:35;;;;;;;3.53;1.33;;;;;;;;;;4962525;28;20054;-62
2021/10/18 04:37:01;;;;;;;9.55;1.67;;;;;;;;;;4963216;28;20074;-59
2021/10/18 04:39:26;;;;;;;5.65;1.52;;;;;;;;;;4962713;28;20043;-59
2021/10/18 04:41:52;;;;;;;2.80;1.00;;;;;;;;;;4960370;28;20067;-61
2021/10/18 04:44:18;;;;;;;5.03;1.63;;;;;;;;;;4961574;28;20080;-59
2021/10/18 04:46:44;;;;;;;3.90;1.42;;;;;;;;;;4957720;28;20868;-59
2021/10/18 04:49:11;;;;;;;5.78;1.67;;;;;;;;;;4959640;28;20050;-58
2021/10/18 04:51:37;;;;;;;6.65;1.70;;;;;;;;;;4958791;28;20043;-60
2021/10/18 04:54:03;;;;;;;7.20;2.00;;;;;;;;;;4957843;28;20054;-58
2021/10/18 04:56:31;;;;;;;16.90;2.00;;;;;;;;;;4960829;28;20047;-58
2021/10/18 04:58:57;;;;;;;4.78;1.75;;;;;;;;;;4975940;28;20042;-62
2021/10/18 05:01:23;;;;;;;6.95;1.90;;;;;;;;;;4976598;28;20065;-59
2021/10/18 05:03:49;;;;;;;7.38;2.10;;;;;;;;;;4974538;28;20350;-61
2021/10/18 05:06:15;;;;;;;5.30;1.63;;;;;;;;;;4958565;28;20047;-61
2021/10/18 05:08:41;;;;;;;7.15;2.00;;;;;;;;;;4971361;28;20043;-61
2021/10/18 05:11:11;;;;;;;5.63;1.77;;;;;;;;;;4962626;28;20036;-56
2021/10/18 05:13:37;;;;;;;3.80;1.40;;;;;;;;;;4958255;28;20059;-60
2021/10/18 05:16:03;;;;;;;9.52;1.65;;;;;;;;;;4964937;28;20492;-59
2021/10/18 05:18:29;;;;;;;7.03;2.20;;;;;;;;;;4948086;28;20404;-58
2021/10/18 05:20:55;;;;;;;7.60;2.10;;;;;;;;;;4951157;28;20055;-60
2021/10/18 05:23:21;;;;;;;6.60;1.90;;;;;;;;;;4948304;28;20506;-60
2021/10/18 05:25:47;;;;;;;10.55;1.55;;;;;;;;;;4949924;28;20039;-60
2021/10/18 05:28:12;;;;;;;2.13;0.93;;;;;;;;;;4952247;28;20050;-57
2021/10/18 05:30:38;;;;;;;6.47;1.60;;;;;;;;;;4953728;28;22051;-57
2021/10/18 05:33:04;;;;;;;4.05;1.33;;;;;;;;;;4957289;28;20315;-59
2021/10/18 05:35:30;;;;;;;3.22;1.45;;;;;;;;;;4954015;28;20039;-59
2021/10/18 05:37:57;;;;;;;4.65;1.58;;;;;;;;;;4956653;28;20043;-60
2021/10/18 05:40:23;;;;;;;5.43;1.67;;;;;;;;;;4953033;28;20045;-60
2021/10/18 05:42:49;;;;;;;4.75;1.70;;;;;;;;;;4953945;28;20050;-59
2021/10/18 05:45:15;;;;;;;5.65;1.58;;;;;;;;;;4952992;28;20512;-60
2021/10/18 05:47:55;;;;;;;14.63;1.40;;;;;;;;;;4952891;28;20915;-59
2021/10/18 05:50:22;;;;;;;7.65;2.00;;;;;;;;;;4953261;28;20035;-60
2021/10/18 05:52:47;;;;;;;10.88;2.33;;;;;;;;;;4969182;28;20566;-62
2021/10/18 05:55:13;;;;;;;4.03;1.70;;;;;;;;;;4955392;28;20049;-59
2021/10/18 05:57:50;;;;;;;10.63;1.23;;;;;;;;;;4953588;28;20101;-59
2021/10/18 06:00:16;;;;;;;4.13;1.83;;;;;;;;;;4955057;28;20380;-60
2021/10/18 06:02:42;;;;;;;4.30;2.20;;;;;;;;;;4966508;28;20083;-60
2021/10/18 06:05:08;;;;;;;8.63;2.50;;;;;;;;;;4979264;28;20046;-60
2021/10/18 06:07:34;;;;;;;10.85;2.55;;;;;;;;;;4982216;28;20054;-60
2021/10/18 06:10:00;;;;;;;13.40;2.38;;;;;;;;;;4979849;28;20023;-58
2021/10/18 06:12:25;;;;;;;5.85;1.98;;;;;;;;;;4992999;28;20058;-61
2021/10/18 06:14:51;;;;;;;4.93;2.17;;;;;;;;;;4970466;28;20983;-60
2021/10/18 06:17:17;;;;;;;4.35;2.15;;;;;;;;;;4963785;28;20046;-60
2021/10/18 06:19:43;;;;;;;12.85;2.75;;;;;;;;;;4957527;28;20038;-59
2021/10/18 06:22:09;;;;;;;8.15;2.28;;;;;;;;;;4955873;28;20143;-60
2021/10/18 06:24:35;;;;;;;4.90;2.10;;;;;;;;;;4956681;28;20070;-60
2021/10/18 06:27:00;;;;;;;4.22;1.83;;;;;;;;;;4955217;28;20463;-59
2021/10/18 06:29:27;;;;;;;7.75;2.13;;;;;;;;;;4954070;28;20050;-58
2021/10/18 06:31:53;;;;;;;3.85;2.08;;;;;;;;;;4952979;28;20046;-59
2021/10/18 06:34:18;;;;;;;8.27;2.47;;;;;;;;;;4953489;28;20494;-60
2021/10/18 06:36:45;;;;;;;5.18;2.17;;;;;;;;;;4953824;28;20066;-59
2021/10/18 06:39:10;;;;;;;5.47;1.73;;;;;;;;;;4952807;28;20047;-60
2021/10/18 06:41:36;;;;;;;8.75;1.60;;;;;;;;;;4950738;28;20924;-60
2021/10/18 06:44:02;;;;;;;4.88;2.00;;;;;;;;;;4950341;28;20039;-59
2021/10/18 06:46:28;;;;;;;4.97;2.22;;;;;;;;;;4950494;28;20054;-60
2021/10/18 06:48:54;;;;;;;5.75;1.88;;;;;;;;;;4950333;28;20051;-58
2021/10/18 06:51:20;;;;;;;12.50;2.50;;;;;;;;;;4950535;28;20472;-60
2021/10/18 06:53:50;;;;;;;10.70;2.50;;;;;;;;;;4952406;28;20094;-59
2021/10/18 06:56:16;;;;;;;5.70;2.33;;;;;;;;;;4952888;28;20043;-59
2021/10/18 06:58:41;;;;;;;4.65;2.20;;;;;;;;;;4951470;28;20099;-60
2021/10/18 07:01:08;;;;;;;11.23;2.40;;;;;;;;;;4956595;28;20113;-59
2021/10/18 07:03:33;;;;;;;8.32;1.92;;;;;;;;;;4950580;28;20086;-60
2021/10/18 07:06:01;;;;;;;4.72;1.60;;;;;;;;;;4967275;28;20491;-60
2021/10/18 07:08:27;;;;;;;4.53;2.05;;;;;;;;;;4950588;28;20035;-58
2021/10/18 07:10:53;;;;;;;4.80;1.95;;;;;;;;;;4952834;28;20310;-59
2021/10/18 07:13:19;;;;;;;4.18;2.03;;;;;;;;;;4951424;28;20046;-58
2021/10/18 07:15:45;;;;;;;4.20;2.03;;;;;;;;;;4953909;28;20030;-58
2021/10/18 07:18:11;;;;;;;11.00;2.67;;;;;;;;;;4952283;28;20058;-59
2021/10/18 07:20:37;;;;;;;6.72;2.58;;;;;;;;;;4943871;28;20543;-60
2021/10/18 07:23:07;;;;;;;5.15;2.25;;;;;;;;;;4965674;28;20133;-60
2021/10/18 07:25:33;;;;;;;18.33;2.45;;;;;;;;;;4950719;28;20047;-59
2021/10/18 07:27:59;;;;;;;4.72;2.30;;;;;;;;;;4952111;28;20407;-59
2021/10/18 07:30:24;;;;;;;9.50;2.42;;;;;;;;;;4951342;28;20062;-55
2021/10/18 07:32:50;;;;;;;7.43;2.00;;;;;;;;;;4968153;28;20043;-59
2021/10/18 07:35:18;;;;;;;8.73;2.65;;;;;;;;;;4953897;28;20043;-59
2021/10/18 07:37:51;;;;;;;8.73;2.35;;;;;;;;;;4951632;28;20133;-58
2021/10/18 07:40:17;;;;;;;17.80;2.58;;;;;;;;;;4951003;28;20141;-58
2021/10/18 07:42:43;;;;;;;11.32;2.40;;;;;;;;;;4948410;28;20046;-58
2021/10/18 07:45:10;;;;;;;4.57;2.30;;;;;;;;;;4949664;28;20082;-58
2021/10/18 07:47:36;;;;;;;7.65;1.90;;;;;;;;;;4949834;28;20042;-58
2021/10/18 07:50:02;;;;;;;5.63;2.45;;;;;;;;;;4951336;28;20048;-60
2021/10/18 07:52:28;;;;;;;7.35;2.50;;;;;;;;;;4951211;28;20416;-59
2021/10/18 07:55:01;;;;;;;6.65;2.30;;;;;;;;;;4950058;28;20058;-61
2021/10/18 07:57:28;;;;;;;6.60;2.30;;;;;;;;;;4952220;28;20035;-59
2021/10/18 07:59:54;;;;;;;8.88;3.10;;;;;;;;;;4952507;28;20057;-59
2021/10/18 08:02:19;;;;;;;8.15;2.38;;;;;;;;;;4950962;28;20051;-60
2021/10/18 08:04:45;;;;;;;8.50;2.65;;;;;;;;;;4948641;28;20035;-59
2021/10/18 08:07:11;;;;;;;5.57;2.20;;;;;;;;;;4950092;28;20111;-58
2021/10/18 08:09:37;;;;;;;6.57;2.40;;;;;;;;;;4950470;28;20122;-60
2021/10/18 08:12:03;;;;;;;7.35;2.28;;;;;;;;;;4952492;28;20117;-58
2021/10/18 08:14:29;;;;;;;6.40;2.15;;;;;;;;;;4951940;28;21905;-58
2021/10/18 08:16:55;;;;;;;4.45;2.17;;;;;;;;;;4953688;28;20042;-59
2021/10/18 08:19:21;;;;;;;5.03;2.40;;;;;;;;;;4951170;28;20086;-58
2021/10/18 08:21:47;;;;;;;4.45;2.35;;;;;;;;;;4953153;28;20613;-58
2021/10/18 08:24:12;;;;;;;8.70;2.70;;;;;;;;;;4950433;28;20131;-58
2021/10/18 08:26:38;;;;;;;7.57;2.35;;;;;;;;;;4950479;28;20094;-59
2021/10/18 08:29:04;;;;;;;4.90;2.17;;;;;;;;;;4949194;28;20488;-59
2021/10/18 08:31:30;;;;;;;7.03;2.60;;;;;;;;;;4952537;28;20047;-60
2021/10/18 08:33:56;;;;;;;16.17;2.70;;;;;;;;;;4955516;28;20062;-57
2021/10/18 08:36:22;;;;;;;6.05;2.47;;;;;;;;;;4952506;28;20081;-57
2021/10/18 08:38:48;;;;;;;7.15;2.03;;;;;;;;;;4953255;28;20405;-58
2021/10/18 08:41:18;;;;;;;6.30;2.55;;;;;;;;;;4951449;28;20086;-59
2021/10/18 08:46:22;;;;;;;8.65;2.40;;;;;;;;;;4950783;28;20045;-59
2021/10/18 08:48:52;;;;;;;7.90;2.60;;;;;;;;;;4950820;28;20046;-59
2021/10/18 08:51:18;;;;;;;11.77;2.75;;;;;;;;;;4950569;28;20042;-59
2021/10/18 08:53:44;;;;;;;4.95;2.10;;;;;;;;;;4950602;28;20140;-59
2021/10/18 08:56:10;;;;;;;5.25;2.30;;;;;;;;;;4952477;28;20050;-57
2021/10/18 08:58:36;;;;;;;12.73;2.35;;;;;;;;;;4949489;28;20116;-58
2021/10/18 09:01:02;;;;;;;6.57;2.17;;;;;;;;;;4950580;28;20051;-57
2021/10/18 09:03:31;;;;;;;4.85;2.20;;;;;;;;;;4953561;28;20113;-59
2021/10/18 09:06:10;;;;;;;5.10;2.33;;;;;;;;;;4953286;28;20111;-61
2021/10/18 09:08:37;;;;;;;4.78;2.40;;;;;;;;;;4953793;28;20101;-58
2021/10/18 09:11:12;;;;;;;5.32;2.20;;;;;;;;;;4955557;28;20377;-59
2021/10/18 09:13:45;;;;;;;8.23;2.50;;;;;;;;;;4954390;28;20039;-59
2021/10/18 09:16:20;;;;;;;5.15;2.45;;;;;;;;;;4955059;28;20173;-62
2021/10/18 09:18:55;;;;;;;6.82;2.22;;;;;;;;;;4954114;28;20035;-59
2021/10/18 09:21:26;;;;;;;12.10;2.63;;;;;;;;;;4955050;28;20050;-60
2021/10/18 09:23:52;;;;;;;8.60;2.80;;;;;;;;;;4954645;28;20080;-60
2021/10/18 09:26:22;;;;;;;4.53;2.33;;;;;;;;;;4952298;28;21512;-59
2021/10/18 09:28:51;;;;;;;8.60;2.50;;;;;;;;;;4953750;28;20067;-58
2021/10/18 09:31:18;;;;;;;6.68;2.40;;;;;;;;;;4954614;28;20039;-58
2021/10/18 09:33:47;;;;;;;9.60;2.17;;;;;;;;;;4954395;28;20063;-59
2021/10/18 09:36:17;;;;;;;6.72;2.45;;;;;;;;;;4958993;28;21030;-59
2021/10/18 09:38:43;;;;;;;4.38;2.15;;;;;;;;;;4951908;28;20230;-60
2021/10/18 09:41:09;;;;;;;5.22;2.63;;;;;;;;;;4953280;28;20039;-58
2021/10/18 10:56:18;;;;;;;7.65;2.22;;;;;;;;;;4953816;28;20034;-57
2021/10/18 10:58:53;;;;;;;6.50;2.20;;;;;;;;;;4951753;28;20655;-59
2021/10/18 11:01:38;;;;;;;5.88;1.92;;;;;;;;;;4953572;28;20051;-59
2021/10/18 11:04:19;;;;;;;5.07;2.28;;;;;;;;;;4955854;28;20071;-55
2021/10/18 11:06:46;;;;;;;5.25;2.13;;;;;;;;;;4952597;28;20047;-59
2021/10/18 11:09:31;;;;;;;4.00;1.85;;;;;;;;;;4953584;28;20042;-58
2021/10/18 11:11:56;;;;;;;4.13;1.60;;;;;;;;;;4954244;28;20049;-57
2021/10/18 11:14:24;;;;;;;5.47;2.17;;;;;;;;;;4953540;28;20051;-58
2021/10/18 11:16:50;;;;;;;4.88;2.10;;;;;;;;;;4954497;28;20039;-59
2021/10/18 11:19:20;;;;;;;5.18;2.03;;;;;;;;;;4954052;28;20042;-59
2021/10/18 11:21:54;;;;;;;4.43;2.30;;;;;;;;;;4959127;28;20071;-59
2021/10/18 11:24:20;;;;;;;6.72;2.58;;;;;;;;;;4959740;28;20035;-58
2021/10/18 11:26:46;;;;;;;3.58;1.38;;;;;;;;;;4978599;28;20172;-57
2021/10/18 11:29:12;;;;;;;3.47;1.70;;;;;;;;;;4981592;28;20050;-59
2021/10/18 11:31:39;;;;;;;6.47;2.47;;;;;;;;;;4981841;28;20047;-59
2021/10/18 11:34:12;;;;;;;4.20;1.92;;;;;;;;;;4981217;28;20038;-57
2021/10/18 11:36:40;;;;;;;4.53;2.15;;;;;;;;;;4965128;28;20215;-59
2021/10/18 11:39:18;;;;;;;9.13;2.47;;;;;;;;;;4963697;28;20140;-59
2021/10/18 11:41:59;;;;;;;4.65;2.20;;;;;;;;;;4965533;28;20162;-60
2021/10/18 11:44:43;;;;;;;4.75;2.22;;;;;;;;;;4957074;28;20746;-59
2021/10/18 11:47:25;;;;;;;6.55;1.90;;;;;;;;;;4970355;28;20402;-59
2021/10/18 11:50:07;;;;;;;4.65;2.38;;;;;;;;;;4955875;28;20046;-59
2021/10/18 11:52:33;;;;;;;5.65;1.90;;;;;;;;;;4953891;28;20427;-58
2021/10/18 11:54:59;;;;;;;4.82;2.13;;;;;;;;;;4952869;28;20101;-54
2021/10/18 11:57:27;;;;;;;4.00;1.50;;;;;;;;;;4958318;28;20043;-59
2021/10/18 11:59:53;;;;;;;9.73;2.15;;;;;;;;;;4953178;28;20039;-58
2021/10/18 12:02:25;;;;;;;7.68;2.40;;;;;;;;;;4952404;28;20055;-58
2021/10/18 12:04:58;;;;;;;5.20;1.67;;;;;;;;;;4951532;28;20046;-59
2021/10/18 12:07:39;;;;;;;4.30;1.83;;;;;;;;;;4954522;28;20114;-60
2021/10/18 12:10:11;;;;;;;6.50;2.38;;;;;;;;;;4956530;28;20299;-61
2021/10/18 12:12:37;;;;;;;12.73;2.92;;;;;;;;;;4953917;28;20054;-61
2021/10/18 12:15:04;;;;;;;5.45;1.95;;;;;;;;;;4947963;28;20044;-58
2021/10/18 12:17:30;;;;;;;7.15;2.72;;;;;;;;;;4949905;28;20062;-60
2021/10/18 12:19:56;;;;;;;2.78;1.33;;;;;;;;;;4951817;28;20039;-59
2021/10/18 12:22:22;;;;;;;4.95;1.90;;;;;;;;;;4951050;28;20931;-59
2021/10/18 12:25:03;;;;;;;4.30;2.33;;;;;;;;;;4953014;28;20073;-59
2021/10/18 12:27:29;;;;;;;4.65;2.05;;;;;;;;;;4947711;28;20050;-57
2021/10/18 12:29:55;;;;;;;5.63;2.08;;;;;;;;;;4951182;28;20053;-57
2021/10/18 12:32:21;;;;;;;7.32;2.33;;;;;;;;;;4951392;28;20035;-59
2021/10/18 12:34:47;;;;;;;5.45;2.08;;;;;;;;;;4949405;28;20050;-58
2021/10/18 12:37:13;;;;;;;4.25;2.08;;;;;;;;;;4948635;28;20039;-59
2021/10/18 12:39:47;;;;;;;5.03;2.33;;;;;;;;;;4948661;28;20404;-59
2021/10/18 12:42:26;;;;;;;9.02;2.08;;;;;;;;;;4965058;28;20138;-59
2021/10/18 12:45:01;;;;;;;6.30;2.35;;;;;;;;;;4949617;28;20500;-57
2021/10/18 12:47:27;;;;;;;6.38;2.40;;;;;;;;;;4949828;28;20066;-59
2021/10/18 12:50:04;;;;;;;4.40;2.00;;;;;;;;;;4951435;28;20431;-58
2021/10/18 12:52:32;;;;;;;6.65;2.28;;;;;;;;;;4948643;28;20920;-59
2021/10/18 12:54:59;;;;;;;3.80;1.90;;;;;;;;;;4948974;28;20043;-58
2021/10/18 12:57:26;;;;;;;5.07;2.33;;;;;;;;;;4950665;28;20587;-59
2021/10/18 13:00:27;;;;;;;4.85;2.50;;;;;;;;;;4949396;28;20042;-59
2021/10/18 13:02:57;;;;;;;5.25;2.10;;;;;;;;;;4949390;28;20066;-61
2021/10/18 13:05:26;;;;;;;4.65;2.40;;;;;;;;;;4949643;28;20035;-60
2021/10/18 13:07:54;;;;;;;6.43;2.40;;;;;;;;;;4949616;28;20042;-59
2021/10/18 13:10:21;;;;;;;4.70;2.13;;;;;;;;;;4948972;28;20066;-59
2021/10/18 13:12:47;;;;;;;3.30;1.65;;;;;;;;;;4948850;28;20047;-60
2021/10/18 13:15:15;;;;;;;5.00;2.50;;;;;;;;;;4963792;28;20050;-60
2021/10/18 13:17:41;;;;;;;5.05;2.50;;;;;;;;;;4949161;28;20042;-60
2021/10/18 13:20:07;;;;;;;6.13;2.15;;;;;;;;;;4950743;28;20118;-58
2021/10/18 13:22:33;;;;;;;5.10;2.20;;;;;;;;;;4964104;28;20644;-60
2021/10/18 13:24:59;;;;;;;5.85;2.38;;;;;;;;;;4951948;28;20039;-59
2021/10/18 13:27:25;;;;;;;4.70;2.10;;;;;;;;;;4950660;28;20535;-59
2021/10/18 13:29:51;;;;;;;4.03;2.10;;;;;;;;;;4949128;28;20038;-57
2021/10/18 13:32:17;;;;;;;4.07;2.30;;;;;;;;;;4964361;28;20059;-60
2021/10/18 13:34:43;;;;;;;6.10;2.83;;;;;;;;;;4949741;28;20126;-57
2021/10/18 13:37:10;;;;;;;6.32;2.42;;;;;;;;;;4950987;28;20035;-58
2021/10/18 13:39:37;;;;;;;3.65;1.38;;;;;;;;;;4951245;28;20526;-59
2021/10/18 13:42:05;;;;;;;5.85;2.72;;;;;;;;;;4951071;28;20047;-59
2021/10/18 13:44:32;;;;;;;9.27;2.40;;;;;;;;;;4948891;28;21871;-58
2021/10/18 13:46:58;;;;;;;12.27;2.50;;;;;;;;;;4952366;28;20035;-59
2021/10/18 13:49:24;;;;;;;5.43;2.40;;;;;;;;;;4953435;28;20039;-59
2021/10/18 13:51:50;;;;;;;5.05;1.90;;;;;;;;;;4953583;28;20142;-58
2021/10/18 13:54:15;;;;;;;3.58;1.90;;;;;;;;;;4953989;28;20058;-60
2021/10/18 13:56:42;;;;;;;5.30;2.50;;;;;;;;;;4952565;28;20067;-61
2021/10/18 13:59:08;;;;;;;3.47;1.58;;;;;;;;;;4954594;28;20154;-58
2021/10/18 14:01:34;;;;;;;2.70;1.30;;;;;;;;;;4957063;28;20399;-60
2021/10/18 14:04:00;;;;;;;4.00;1.60;;;;;;;;;;4957719;28;20043;-60
2021/10/18 14:06:26;;;;;;;7.07;2.78;;;;;;;;;;4955685;28;20476;-57
2021/10/18 14:08:52;;;;;;;4.80;2.05;;;;;;;;;;4955653;28;20082;-58
2021/10/18 14:11:18;;;;;;;5.80;1.92;;;;;;;;;;4955679;28;20169;-58
2021/10/18 14:13:45;;;;;;;3.95;1.80;;;;;;;;;;4955062;28;20046;-60
2021/10/18 14:16:10;;;;;;;16.73;2.22;;;;;;;;;;4955776;28;20127;-60
2021/10/18 14:18:36;;;;;;;2.65;1.17;;;;;;;;;;4953450;28;20039;-60
2021/10/18 14:21:02;;;;;;;4.65;2.20;;;;;;;;;;4957248;28;20590;-59
2021/10/18 14:23:28;;;;;;;4.25;2.15;;;;;;;;;;4957932;28;20047;-59
2021/10/18 14:25:54;;;;;;;4.38;2.30;;;;;;;;;;4954163;28;20046;-61
2021/10/18 14:28:20;;;;;;;4.35;2.03;;;;;;;;;;4953117;28;20039;-59
2021/10/18 14:30:46;;;;;;;4.57;1.40;;;;;;;;;;4958971;28;20043;-60
2021/10/18 14:33:11;;;;;;;3.00;1.48;;;;;;;;;;4954221;28;20046;-60
2021/10/18 14:35:39;;;;;;;4.40;1.98;;;;;;;;;;4953868;28;20042;-60
2021/10/18 14:38:05;;;;;;;5.97;1.65;;;;;;;;;;4942139;28;20054;-61
2021/10/18 14:40:32;;;;;;;3.58;1.80;;;;;;;;;;4955807;28;20043;-61
2021/10/18 14:42:58;;;;;;;5.85;2.53;;;;;;;;;;4958285;28;20171;-60
2021/10/18 14:45:23;;;;;;;3.13;1.42;;;;;;;;;;4955095;28;20137;-61
2021/10/18 14:47:49;;;;;;;3.17;1.58;;;;;;;;;;4954771;28;20039;-60
2021/10/18 14:50:15;;;;;;;3.28;1.55;;;;;;;;;;4957144;28;20066;-61
2021/10/18 14:52:41;;;;;;;3.05;1.38;;;;;;;;;;4954053;28;20047;-61
2021/10/18 14:55:09;;;;;;;5.70;1.65;;;;;;;;;;4953589;28;20083;-60
2021/10/18 14:57:35;;;;;;;2.88;1.20;;;;;;;;;;4955878;28;20124;-62
2021/10/18 15:00:01;;;;;;;6.43;2.22;;;;;;;;;;4971258;28;20617;-61
2021/10/18 15:02:27;;;;;;;3.88;2.00;;;;;;;;;;4954122;28;20071;-60
2021/10/18 15:04:55;;;;;;;4.45;1.83;;;;;;;;;;4955837;28;20554;-60
2021/10/18 15:07:21;;;;;;;3.17;1.17;;;;;;;;;;4953468;28;20050;-61
2021/10/18 15:09:47;;;;;;;3.80;1.75;;;;;;;;;;4969865;28;20788;-61
2021/10/18 15:12:14;;;;;;;4.82;1.55;;;;;;;;;;4951246;28;20047;-61
2021/10/18 15:14:39;;;;;;;4.38;2.30;;;;;;;;;;4951728;28;20095;-61
2021/10/18 15:17:08;;;;;;;3.67;1.70;;;;;;;;;;4955404;28;20039;-62
2021/10/18 15:19:34;;;;;;;5.07;2.35;;;;;;;;;;4954488;28;20047;-61
2021/10/18 15:22:01;;;;;;;4.15;1.70;;;;;;;;;;4955287;28;20078;-63
2021/10/18 15:24:27;;;;;;;4.22;1.65;;;;;;;;;;4953204;28;20051;-60
2021/10/18 15:26:53;;;;;;;3.15;1.50;;;;;;;;;;4954094;28;20027;-61
2021/10/18 15:29:20;;;;;;;4.60;2.42;;;;;;;;;;4950682;28;20043;-61
2021/10/18 15:31:47;;;;;;;7.38;2.58;;;;;;;;;;4950298;28;20054;-60
2021/10/18 15:34:13;;;;;;;5.50;1.75;;;;;;;;;;4952289;28;20695;-62
2021/10/18 15:36:39;;;;;;;2.15;1.00;;;;;;;;;;4952869;28;20047;-63
2021/10/18 15:39:05;;;;;;;3.58;1.55;;;;;;;;;;4954113;28;20039;-61
2021/10/18 15:41:31;;;;;;;5.68;2.80;;;;;;;;;;4954574;28;20516;-61
2021/10/18 15:43:58;;;;;;;5.22;1.42;;;;;;;;;;4954376;28;20062;-61
2021/10/18 15:46:24;;;;;;;4.97;2.80;;;;;;;;;;4951890;28;20047;-62
2021/10/18 15:48:49;;;;;;;3.95;1.92;;;;;;;;;;4954295;28;20295;-59
2021/10/18 15:51:15;;;;;;;4.60;2.33;;;;;;;;;;4955509;28;20039;-60
2021/10/18 15:53:42;;;;;;;3.85;1.63;;;;;;;;;;4951742;28;20043;-62
2021/10/18 15:56:09;;;;;;;4.07;1.73;;;;;;;;;;4953958;28;20050;-61
2021/10/18 15:58:35;;;;;;;3.25;1.88;;;;;;;;;;4954622;28;20039;-63